Espaço - Ciências - Fenômenos Naturais
Meteógrafos Informações Meteorológicas em tempo real

Aeroporto de Congonhas

Histórico do Tempo
Temperatura atual: 26 graus 78 F    Umidade relativa: 61 %
Velocidade do vento: 15 nós 27 Km/h    Direção: 190 graus S
Ajuste do altímetro ..: 1017 HPA
Visibilidade: Ótima    Tempo presente: Céu Limpo

Observação

Data Hora BRTTempo°CUmidadePressãoVentoVisib.
23/10 - 15:55   Céu Limpo 26° 61% 1017 Sul/27 km/h OK
23/10 - 14:55   Poucas nuvens esparsas 29° 40% 1017 Oeste/9 km/h 9999
23/10 - 13:55   Não Disponível 28° 48% 1018 Noroeste/14 km/h 9999
23/10 - 12:55   Não Disponível 28° 48% 1018 Noroeste/14 km/h 9999
23/10 - 11:55   Céu Limpo 25° 53% 1019 Norte/9 km/h OK
23/10 - 10:55   Céu Limpo 25° 53% 1019 Norte/9 km/h OK
23/10 - 09:55   Céu Limpo 20° 77% 1018 Norte-nordeste/7 km/h CAVO
23/10 - 08:55   Céu Limpo 20° 77% 1018 Norte-nordeste/7 km/h CAVO
23/10 - 07:55   Não Disponível 18° 82% 1018 Este-nordeste/9 km/h 7000
23/10 - 06:55   Não Disponível 16° 87% 1016 Nordeste/9 km/h 7000
23/10 - 05:55   Não Disponível 17° 82% 1016 Nordeste/9 km/h 9000
23/10 - 04:55   Céu Limpo 17° 82% 1016 Este-nordeste/7 km/h CAVO
23/10 - 03:55   Céu Limpo 17° 82% 1017 Nordeste/7 km/h OK
23/10 - 02:55   Céu Limpo 17° 82% 1017 Nordeste/9 km/h OK
23/10 - 01:55   Céu Limpo 17° 77% 1018 Nordeste/9 km/h CAVO
23/10 - 00:55   Céu Limpo 17° 77% 1019 Este-nordeste/9 km/h CAVO
22/10 - 23:55   Céu Limpo 17° 77% 1020 Sudeste/10 km/h OK
22/10 - 22:55   Céu Limpo 17° 77% 1020 Sudeste/10 km/h OK
22/10 - 21:55   Céu Encoberto 17° 82% 1019 Sul-sudeste/14 km/h OK
22/10 - 20:55   Céu Encoberto 17° 82% 1018 Sul-sudeste/16 km/h OK
22/10 - 19:55   Céu Encoberto 17° 82% 1018 Sul-sudeste/19 km/h OK
22/10 - 18:55   Parcialmente Nublado 18° 82% 1017 Sul/19 km/h OK
22/10 - 17:55   Parcialmente Nublado 18° 82% 1017 Sul/19 km/h OK
22/10 - 16:55   Céu Limpo 22° 64% 1017 Sul/21 km/h OK


Apolo11.com - Todos os direitos reservados - 2000 - 2018
Política de Privacidade   |     Termo de Uso e Licenciamento   |  -   Entre em Contato

"Governar é roubar, todo mundo sabe disso" - Calígula